ADDS METAR Data INFO
IDs: Format: Raw Decoded Include TAF

Data at: 2019 UTC 18 Jul 2018

KADC 182015Z AUTO 15005KT 10SM SCT036 25/18 A3002 RMK AO2
KADC 181955Z AUTO 15008KT 10SM SCT036 26/18 A3003 RMK AO2
KADC 181935Z AUTO 17006KT 10SM CLR 26/18 A3004 RMK AO2
KADC 181915Z AUTO 17006KT 10SM CLR 26/18 A3004 RMK AO2
KADC 181855Z AUTO 17007KT 10SM CLR 25/17 A3004 RMK AO2
KADC 181835Z AUTO 17006KT 10SM CLR 25/17 A3005 RMK AO2
KADC 181815Z AUTO 17007KT 10SM SCT047 26/17 A3005 RMK AO2
KADC 181755Z AUTO 16009KT 10SM CLR 26/17 A3005 RMK AO2
KADC 181735Z AUTO 14007KT 10SM SCT047 26/17 A3005 RMK AO2
KADC 181715Z AUTO 16007KT 10SM SCT047 26/17 A3006 RMK AO2
KADC 181655Z AUTO 16007KT 10SM BKN045 24/16 A3007 RMK AO2
KADC 181635Z AUTO 16007KT 10SM SCT045 24/16 A3007 RMK AO2
KADC 181615Z AUTO 16007KT 10SM CLR 24/16 A3007 RMK AO2
KADC 181555Z AUTO 17007KT 10SM CLR 24/16 A3007 RMK AO2
KADC 181535Z AUTO 16006KT 10SM BKN045 23/16 A3008 RMK AO2
KADC 181515Z AUTO 17004KT 10SM BKN045 23/16 A3009 RMK AO2
KADC 181455Z AUTO 17004KT 10SM SCT045 SCT070 23/16 A3010 RMK AO2
KADC 181435Z AUTO 17006KT 10SM SCT070 22/16 A3010 RMK AO2
KADC 181415Z AUTO 18006KT 10SM SCT043 SCT049 SCT055 21/15 A3010 RMK AO2
KADC 181355Z AUTO 19005KT 10SM SCT045 BKN055 BKN065 21/16 A3010 RMK AO2
KADC 181335Z AUTO 16004KT 10SM SCT045 BKN055 BKN065 19/16 A3010 RMK AO2
KADC 181315Z AUTO 16005KT 10SM BKN045 BKN065 18/16 A3010 RMK AO2
KADC 181255Z AUTO 15003KT 10SM BKN043 BKN065 18/15 A3010 RMK AO2
KADC 181235Z AUTO 00000KT 10SM OVC043 17/15 A3010 RMK AO2
KADC 181215Z AUTO 00000KT 10SM OVC043 16/14 A3010 RMK AO2
KADC 181155Z AUTO 00000KT 10SM OVC043 15/14 A3010 RMK AO2
KADC 181135Z AUTO 00000KT 10SM OVC043 14/14 A3011 RMK AO2
KADC 181115Z AUTO 00000KT 10SM OVC043 13/13 A3010 RMK AO2
KADC 181055Z AUTO 00000KT 10SM BKN043 12/12 A3010 RMK AO2
KADC 181035Z AUTO 00000KT 10SM BKN043 11/11 A3011 RMK AO2
KADC 181015Z AUTO 00000KT 10SM SCT043 11/11 A3011 RMK AO2
KADC 180955Z AUTO 00000KT 10SM CLR 11/11 A3011 RMK AO2
KADC 180935Z AUTO 00000KT 10SM CLR 11/11 A3011 RMK AO2
KADC 180915Z AUTO 00000KT 2 1/2SM BR CLR 11/11 A3010 RMK AO2 VIS 1V5
KADC 180855Z AUTO 00000KT 10SM CLR 11/11 A3011 RMK AO2
KADC 180835Z AUTO 00000KT 10SM CLR 11/11 A3011 RMK AO2
KADC 180816Z AUTO 00000KT 10SM CLR 12/12 A3011 RMK AO2
KADC 180755Z AUTO 00000KT 10SM CLR 12/12 A3010 RMK AO2
KADC 180735Z AUTO 00000KT 7SM CLR 12/12 A3011 RMK AO2
KADC 180715Z AUTO 00000KT 10SM CLR 12/12 A3010 RMK AO2
KADC 180655Z AUTO 00000KT 10SM CLR 12/12 A3010 RMK AO2
KADC 180635Z AUTO 00000KT 10SM CLR 12/12 A3010 RMK AO2
KADC 180615Z AUTO 00000KT 10SM CLR 13/13 A3010 RMK AO2
KADC 180555Z AUTO 00000KT 10SM CLR 12/12 A3010 RMK AO2
KADC 180535Z AUTO 00000KT 10SM CLR 13/13 A3011 RMK AO2
KADC 180515Z AUTO 00000KT 10SM CLR 14/14 A3011 RMK AO2
KADC 180456Z AUTO 00000KT 10SM CLR 14/14 A3012 RMK AO2
KADC 180435Z AUTO 00000KT 10SM CLR 14/14 A3011 RMK AO2
KADC 180415Z AUTO 00000KT 10SM CLR 14/14 A3011 RMK AO2
KADC 180355Z AUTO 00000KT 10SM CLR 15/14 A3011 RMK AO2
KADC 180335Z AUTO 00000KT 10SM CLR 16/14 A3011 RMK AO2
KADC 180315Z AUTO 00000KT 10SM CLR 16/14 A3011 RMK AO2
KADC 180255Z AUTO 00000KT 10SM CLR 17/14 A3011 RMK AO2
KADC 180235Z AUTO 00000KT 10SM CLR 17/14 A3011 RMK AO2
KADC 180215Z AUTO 00000KT 10SM CLR 18/15 A3011 RMK AO2
KADC 180155Z AUTO 00000KT 10SM CLR 20/16 A3011 RMK AO2
KADC 180135Z AUTO 00000KT 10SM CLR 22/14 A3011 RMK AO2
KADC 180115Z AUTO 00000KT 10SM CLR 22/15 A3011 RMK AO2
KADC 180055Z AUTO 00000KT 10SM CLR 23/14 A3011 RMK AO2
KADC 180035Z AUTO 00000KT 10SM CLR 23/16 A3011 RMK AO2
KADC 180015Z AUTO 00000KT 10SM CLR 23/14 A3011 RMK AO2
KADC 172355Z AUTO 00000KT 10SM CLR 24/13 A3012 RMK AO2
KADC 172335Z AUTO 00000KT 10SM SCT050 24/13 A3012 RMK AO2
KADC 172315Z AUTO 00000KT 10SM SCT050 24/13 A3012 RMK AO2
KADC 172255Z AUTO 00000KT 10SM CLR 24/13 A3012 RMK AO2
KADC 172235Z AUTO 00000KT 10SM SCT050 24/13 A3012 RMK AO2
KADC 172215Z AUTO 00000KT 10SM BKN050 24/13 A3012 RMK AO2
KADC 172155Z AUTO 31003KT 10SM SCT050 24/13 A3013 RMK AO2
KADC 172135Z AUTO 00000KT 10SM CLR 24/13 A3013 RMK AO2
KADC 172116Z AUTO 00000KT 10SM CLR 24/12 A3013 RMK AO2
KADC 172055Z AUTO 11003KT 10SM CLR 24/12 A3014 RMK AO2
KADC 172035Z AUTO 00000KT 10SM CLR 24/13 A3014 RMK AO2
KADC 172015Z AUTO 23003KT 10SM CLR 24/12 A3014 RMK AO2
KADC 171955Z AUTO 00000KT 10SM SCT048 23/13 A3015 RMK AO2
KADC 171935Z AUTO 15003KT 10SM SCT048 23/13 A3015 RMK AO2
KADC 171915Z AUTO 00000KT 10SM CLR 22/13 A3015 RMK AO2
KADC 171855Z AUTO 00000KT 10SM SCT045 23/12 A3016 RMK AO2
KADC 171835Z AUTO 21003KT 10SM CLR 23/13 A3016 RMK AO2
KADC 171815Z AUTO 14003KT 10SM CLR 22/13 A3016 RMK AO2
KADC 171755Z AUTO 11005KT 10SM CLR 22/12 A3017 RMK AO2
KADC 171735Z AUTO 00000KT 10SM SCT039 22/13 A3017 RMK AO2
KADC 171715Z AUTO 00000KT 10SM BKN039 21/12 A3018 RMK AO2
KADC 171655Z AUTO 00000KT 10SM SCT039 21/12 A3018 RMK AO2
KADC 171635Z AUTO 00000KT 10SM BKN039 21/13 A3018 RMK AO2
KADC 171615Z AUTO 00000KT 10SM SCT037 21/12 A3018 RMK AO2
KADC 171555Z AUTO 00000KT 10SM SCT037 21/13 A3018 RMK AO2
KADC 171535Z AUTO 00000KT 10SM CLR 20/12 A3018 RMK AO2
KADC 171515Z AUTO 12004KT 10SM CLR 19/13 A3018 RMK AO2
KADC 171455Z AUTO 18003KT 10SM CLR 19/13 A3018 RMK AO2
KADC 171435Z AUTO 00000KT 10SM CLR 19/13 A3018 RMK AO2
KADC 171415Z AUTO 10003KT 10SM CLR 18/13 A3018 RMK AO2
KADC 171355Z AUTO 08004KT 10SM CLR 17/13 A3018 RMK AO2
KADC 171335Z AUTO 00000KT 10SM CLR 16/13 A3018 RMK AO2
KADC 171315Z AUTO 00000KT 10SM CLR 16/13 A3018 RMK AO2
KADC 171255Z AUTO 00000KT 10SM CLR 14/13 A3017 RMK AO2
KADC 171235Z AUTO 00000KT 10SM CLR 13/13 A3017 RMK AO2
KADC 171215Z AUTO 00000KT 10SM CLR 12/12 A3017 RMK AO2
KADC 171155Z AUTO 00000KT 10SM CLR 11/11 A3016 RMK AO2
KADC 171135Z AUTO 00000KT 10SM CLR 09/09 A3016 RMK AO2
KADC 171115Z AUTO 00000KT 4SM BR CLR 09/09 A3016 RMK AO2
KADC 171055Z AUTO 00000KT 10SM CLR 09/09 A3015 RMK AO2
KADC 171035Z AUTO 00000KT 5SM BR CLR 09/09 A3015 RMK AO2
KADC 171015Z AUTO 00000KT 10SM CLR 09/09 A3015 RMK AO2
KADC 170955Z AUTO 00000KT 10SM CLR 09/09 A3014 RMK AO2
KADC 170935Z AUTO 00000KT 10SM CLR 09/09 A3014 RMK AO2
KADC 170915Z AUTO 00000KT 10SM CLR 09/09 A3013 RMK AO2
KADC 170855Z AUTO 00000KT 10SM CLR 09/09 A3013 RMK AO2
KADC 170835Z AUTO 00000KT 7SM CLR 09/09 A3013 RMK AO2